sensor_id;sensor_type;location;lat;lon;timestamp;pressure;altitude;pressure_sealevel;temperature;humidity
76762;BME280;65705;51.032;13.790;2023-03-05T00:02:08;100325.13;;;3.91;67.74
76762;BME280;65705;51.032;13.790;2023-03-05T00:04:34;100332.25;;;4.00;66.77
76762;BME280;65705;51.032;13.790;2023-03-05T00:06:59;100329.19;;;3.95;66.59
76762;BME280;65705;51.032;13.790;2023-03-05T00:09:25;100331.06;;;3.93;66.51
76762;BME280;65705;51.032;13.790;2023-03-05T00:11:51;100322.06;;;3.86;66.51
76762;BME280;65705;51.032;13.790;2023-03-05T00:14:16;100327.53;;;3.94;65.71
76762;BME280;65705;51.032;13.790;2023-03-05T00:16:42;100328.41;;;3.82;66.21
76762;BME280;65705;51.032;13.790;2023-03-05T00:19:09;100324.50;;;3.76;66.18
76762;BME280;65705;51.032;13.790;2023-03-05T00:21:37;100323.00;;;3.85;65.68
76762;BME280;65705;51.032;13.790;2023-03-05T00:24:06;100322.94;;;3.74;65.82
76762;BME280;65705;51.032;13.790;2023-03-05T00:26:35;100320.06;;;3.66;66.70
76762;BME280;65705;51.032;13.790;2023-03-05T00:29:01;100321.31;;;3.73;66.38
76762;BME280;65705;51.032;13.790;2023-03-05T00:31:29;100322.09;;;3.73;66.47
76762;BME280;65705;51.032;13.790;2023-03-05T00:33:58;100315.28;;;3.72;66.69
76762;BME280;65705;51.032;13.790;2023-03-05T00:36:25;100321.78;;;3.78;66.61
76762;BME280;65705;51.032;13.790;2023-03-05T00:38:51;100324.94;;;3.70;66.85
76762;BME280;65705;51.032;13.790;2023-03-05T00:41:17;100313.16;;;3.77;66.60
76762;BME280;65705;51.032;13.790;2023-03-05T00:43:43;100302.78;;;3.77;66.68
76762;BME280;65705;51.032;13.790;2023-03-05T00:46:08;100302.91;;;3.76;66.67
76762;BME280;65705;51.032;13.790;2023-03-05T00:48:34;100300.78;;;3.81;66.27
76762;BME280;65705;51.032;13.790;2023-03-05T00:51:00;100297.59;;;3.77;66.49
76762;BME280;65705;51.032;13.790;2023-03-05T00:53:26;100288.06;;;3.78;66.40
76762;BME280;65705;51.032;13.790;2023-03-05T00:55:52;100293.56;;;3.73;66.51
76762;BME280;65705;51.032;13.790;2023-03-05T00:58:18;100286.72;;;3.72;66.61
76762;BME280;65705;51.032;13.790;2023-03-05T01:00:44;100283.78;;;3.77;66.33
76762;BME280;65705;51.032;13.790;2023-03-05T01:03:10;100270.06;;;3.64;66.33
76762;BME280;65705;51.032;13.790;2023-03-05T01:05:36;100276.53;;;3.58;66.31
76762;BME280;65705;51.032;13.790;2023-03-05T01:08:02;100287.22;;;3.54;66.39
76762;BME280;65705;51.032;13.790;2023-03-05T01:10:28;100287.22;;;3.54;65.95
76762;BME280;65705;51.032;13.790;2023-03-05T01:12:55;100271.03;;;3.50;66.43
76762;BME280;65705;51.032;13.790;2023-03-05T01:15:23;100282.47;;;3.48;66.61
76762;BME280;65705;51.032;13.790;2023-03-05T01:17:49;100271.22;;;3.60;66.21
76762;BME280;65705;51.032;13.790;2023-03-05T01:20:16;100274.41;;;3.63;65.94
76762;BME280;65705;51.032;13.790;2023-03-05T01:22:42;100270.88;;;3.64;65.64
76762;BME280;65705;51.032;13.790;2023-03-05T01:25:09;100269.16;;;3.52;65.62
76762;BME280;65705;51.032;13.790;2023-03-05T01:27:35;100255.16;;;3.55;65.67
76762;BME280;65705;51.032;13.790;2023-03-05T01:30:01;100257.53;;;3.58;65.04
76762;BME280;65705;51.032;13.790;2023-03-05T01:32:27;100260.84;;;3.60;64.87
76762;BME280;65705;51.032;13.790;2023-03-05T01:34:52;100260.84;;;3.60;63.91
76762;BME280;65705;51.032;13.790;2023-03-05T01:37:18;100263.59;;;3.46;64.25
76762;BME280;65705;51.032;13.790;2023-03-05T01:39:44;100258.72;;;3.41;64.16
76762;BME280;65705;51.032;13.790;2023-03-05T01:42:10;100246.41;;;3.32;64.56
76762;BME280;65705;51.032;13.790;2023-03-05T01:44:35;100246.81;;;3.39;64.03
76762;BME280;65705;51.032;13.790;2023-03-05T01:47:02;100242.69;;;3.36;63.67
76762;BME280;65705;51.032;13.790;2023-03-05T01:49:39;100250.75;;;3.44;63.28
76762;BME280;65705;51.032;13.790;2023-03-05T01:54:42;100242.78;;;3.35;62.79
76762;BME280;65705;51.032;13.790;2023-03-05T01:57:14;100243.28;;;3.40;62.70
76762;BME280;65705;51.032;13.790;2023-03-05T01:59:43;100244.88;;;3.30;62.37
76762;BME280;65705;51.032;13.790;2023-03-05T02:02:11;100246.41;;;3.32;61.65
76762;BME280;65705;51.032;13.790;2023-03-05T02:05:05;100244.78;;;3.31;61.38
76762;BME280;65705;51.032;13.790;2023-03-05T02:07:32;100255.34;;;3.28;61.14
76762;BME280;65705;51.032;13.790;2023-03-05T02:09:58;100238.19;;;3.14;61.39
76762;BME280;65705;51.032;13.790;2023-03-05T02:12:24;100233.94;;;3.13;61.33
76762;BME280;65705;51.032;13.790;2023-03-05T02:14:51;100230.03;;;3.08;61.44
76762;BME280;65705;51.032;13.790;2023-03-05T02:17:26;100243.72;;;3.10;61.68
76762;BME280;65705;51.032;13.790;2023-03-05T02:19:55;100232.94;;;3.03;61.79
76762;BME280;65705;51.032;13.790;2023-03-05T02:22:23;100227.13;;;3.00;62.14
76762;BME280;65705;51.032;13.790;2023-03-05T02:24:49;100230.34;;;3.03;62.56
76762;BME280;65705;51.032;13.790;2023-03-05T02:27:15;100222.66;;;3.02;62.56
76762;BME280;65705;51.032;13.790;2023-03-05T02:29:45;100219.97;;;3.03;62.77
76762;BME280;65705;51.032;13.790;2023-03-05T02:32:12;100232.38;;;3.11;63.03
76762;BME280;65705;51.032;13.790;2023-03-05T02:34:38;100211.66;;;3.11;62.97
76762;BME280;65705;51.032;13.790;2023-03-05T02:37:04;100208.03;;;3.13;63.01
76762;BME280;65705;51.032;13.790;2023-03-05T02:39:34;100213.91;;;3.15;63.32
76762;BME280;65705;51.032;13.790;2023-03-05T02:42:00;100221.19;;;3.10;63.18
76762;BME280;65705;51.032;13.790;2023-03-05T02:44:27;100210.09;;;3.08;63.81
76762;BME280;65705;51.032;13.790;2023-03-05T02:46:52;100214.59;;;3.06;63.46
76762;BME280;65705;51.032;13.790;2023-03-05T02:49:18;100200.06;;;3.04;63.49
76762;BME280;65705;51.032;13.790;2023-03-05T02:51:44;100209.78;;;3.13;63.49
76762;BME280;65705;51.032;13.790;2023-03-05T02:54:10;100204.38;;;3.16;63.31
76762;BME280;65705;51.032;13.790;2023-03-05T02:56:36;100204.84;;;3.21;63.36
76762;BME280;65705;51.032;13.790;2023-03-05T02:59:03;100205.59;;;3.23;62.28
76762;BME280;65705;51.032;13.790;2023-03-05T03:01:29;100202.72;;;3.15;62.25
76762;BME280;65705;51.032;13.790;2023-03-05T03:03:55;100210.44;;;3.04;62.86
76762;BME280;65705;51.032;13.790;2023-03-05T03:06:21;100198.50;;;3.01;63.16
76762;BME280;65705;51.032;13.790;2023-03-05T03:08:46;100206.25;;;2.90;62.69
76762;BME280;65705;51.032;13.790;2023-03-05T03:11:12;100196.56;;;2.92;62.69
76762;BME280;65705;51.032;13.790;2023-03-05T03:13:38;100199.59;;;2.86;62.62
76762;BME280;65705;51.032;13.790;2023-03-05T03:16:06;100209.44;;;2.94;62.22
76762;BME280;65705;51.032;13.790;2023-03-05T03:18:33;100203.00;;;2.87;62.59
76762;BME280;65705;51.032;13.790;2023-03-05T03:20:58;100201.38;;;2.86;62.42
76762;BME280;65705;51.032;13.790;2023-03-05T03:23:24;100187.38;;;2.88;62.46
76762;BME280;65705;51.032;13.790;2023-03-05T03:25:50;100190.47;;;2.93;62.61
76762;BME280;65705;51.032;13.790;2023-03-05T03:28:16;100181.53;;;2.97;61.58
76762;BME280;65705;51.032;13.790;2023-03-05T03:30:42;100193.88;;;2.94;61.96
76762;BME280;65705;51.032;13.790;2023-03-05T03:33:08;100194.19;;;2.89;62.39
76762;BME280;65705;51.032;13.790;2023-03-05T03:35:34;100189.25;;;2.86;62.40
76762;BME280;65705;51.032;13.790;2023-03-05T03:38:00;100193.81;;;2.83;62.22
76762;BME280;65705;51.032;13.790;2023-03-05T03:40:25;100190.53;;;2.68;62.69
76762;BME280;65705;51.032;13.790;2023-03-05T03:42:51;100187.72;;;2.71;62.46
76762;BME280;65705;51.032;13.790;2023-03-05T03:45:18;100181.09;;;2.67;62.54
76762;BME280;65705;51.032;13.790;2023-03-05T03:47:43;100183.78;;;2.66;62.75
76762;BME280;65705;51.032;13.790;2023-03-05T03:50:10;100182.88;;;2.67;62.55
76762;BME280;65705;51.032;13.790;2023-03-05T03:52:35;100170.94;;;2.64;63.11
76762;BME280;65705;51.032;13.790;2023-03-05T03:55:01;100174.66;;;2.73;62.58
76762;BME280;65705;51.032;13.790;2023-03-05T03:57:30;100168.94;;;2.80;62.11
76762;BME280;65705;51.032;13.790;2023-03-05T03:59:58;100171.63;;;2.79;61.95
76762;BME280;65705;51.032;13.790;2023-03-05T04:02:24;100168.41;;;2.88;61.49
76762;BME280;65705;51.032;13.790;2023-03-05T04:04:50;100173.22;;;2.92;61.27
76762;BME280;65705;51.032;13.790;2023-03-05T04:07:16;100176.47;;;2.83;60.75
76762;BME280;65705;51.032;13.790;2023-03-05T04:09:42;100161.91;;;2.70;61.55
76762;BME280;65705;51.032;13.790;2023-03-05T04:12:08;100161.19;;;2.68;61.59
76762;BME280;65705;51.032;13.790;2023-03-05T04:14:34;100158.50;;;2.69;61.47
76762;BME280;65705;51.032;13.790;2023-03-05T04:17:00;100155.38;;;2.77;61.18
76762;BME280;65705;51.032;13.790;2023-03-05T04:19:25;100146.75;;;2.76;60.62
76762;BME280;65705;51.032;13.790;2023-03-05T04:21:52;100153.13;;;2.72;60.84
76762;BME280;65705;51.032;13.790;2023-03-05T04:24:18;100160.16;;;2.70;60.80
76762;BME280;65705;51.032;13.790;2023-03-05T04:26:44;100167.44;;;2.65;60.75
76762;BME280;65705;51.032;13.790;2023-03-05T04:29:09;100150.72;;;2.69;61.12
76762;BME280;65705;51.032;13.790;2023-03-05T04:31:35;100142.03;;;2.70;60.65
76762;BME280;65705;51.032;13.790;2023-03-05T04:34:01;100148.44;;;2.77;60.70
76762;BME280;65705;51.032;13.790;2023-03-05T04:36:27;100142.53;;;2.75;60.78
76762;BME280;65705;51.032;13.790;2023-03-05T04:38:52;100136.50;;;2.75;60.55
76762;BME280;65705;51.032;13.790;2023-03-05T04:41:18;100139.69;;;2.78;60.76
76762;BME280;65705;51.032;13.790;2023-03-05T04:43:44;100125.94;;;2.78;60.89
76762;BME280;65705;51.032;13.790;2023-03-05T04:46:09;100139.41;;;2.83;61.38
76762;BME280;65705;51.032;13.790;2023-03-05T04:48:35;100128.97;;;2.95;61.14
76762;BME280;65705;51.032;13.790;2023-03-05T04:51:01;100130.00;;;2.93;61.83
76762;BME280;65705;51.032;13.790;2023-03-05T04:53:26;100122.13;;;2.94;62.46
76762;BME280;65705;51.032;13.790;2023-03-05T04:55:53;100142.13;;;2.92;62.72
76762;BME280;65705;51.032;13.790;2023-03-05T04:58:20;100126.22;;;2.86;63.07
76762;BME280;65705;51.032;13.790;2023-03-05T05:00:45;100115.00;;;2.85;63.73
76762;BME280;65705;51.032;13.790;2023-03-05T05:03:11;100128.56;;;2.89;63.92
76762;BME280;65705;51.032;13.790;2023-03-05T05:05:37;100128.81;;;2.86;64.63
76762;BME280;65705;51.032;13.790;2023-03-05T05:08:03;100120.84;;;2.76;65.70
76762;BME280;65705;51.032;13.790;2023-03-05T05:10:29;100143.00;;;2.80;66.13
76762;BME280;65705;51.032;13.790;2023-03-05T05:12:56;100137.94;;;2.79;66.73
76762;BME280;65705;51.032;13.790;2023-03-05T05:15:22;100136.72;;;2.72;66.68
76762;BME280;65705;51.032;13.790;2023-03-05T05:17:48;100135.41;;;2.66;67.04
76762;BME280;65705;51.032;13.790;2023-03-05T05:20:15;100129.91;;;2.58;67.44
76762;BME280;65705;51.032;13.790;2023-03-05T05:22:41;100143.41;;;2.63;67.63
76762;BME280;65705;51.032;13.790;2023-03-05T05:25:08;100127.78;;;2.52;67.89
76762;BME280;65705;51.032;13.790;2023-03-05T05:27:35;100126.63;;;2.56;67.93
76762;BME280;65705;51.032;13.790;2023-03-05T05:30:01;100124.97;;;2.55;67.89
76762;BME280;65705;51.032;13.790;2023-03-05T05:32:26;100119.91;;;2.54;67.93
76762;BME280;65705;51.032;13.790;2023-03-05T05:34:57;100115.94;;;2.61;67.82
76762;BME280;65705;51.032;13.790;2023-03-05T05:37:23;100109.81;;;2.62;67.38
76762;BME280;65705;51.032;13.790;2023-03-05T05:39:50;100113.72;;;2.67;67.02
76762;BME280;65705;51.032;13.790;2023-03-05T05:42:17;100117.50;;;2.63;67.07
76762;BME280;65705;51.032;13.790;2023-03-05T05:44:43;100109.72;;;2.63;67.07
76762;BME280;65705;51.032;13.790;2023-03-05T05:47:09;100104.31;;;2.66;66.15
76762;BME280;65705;51.032;13.790;2023-03-05T05:49:35;100114.66;;;2.66;66.13
76762;BME280;65705;51.032;13.790;2023-03-05T05:52:01;100113.41;;;2.72;66.12
76762;BME280;65705;51.032;13.790;2023-03-05T05:54:27;100107.50;;;2.70;65.56
76762;BME280;65705;51.032;13.790;2023-03-05T05:56:53;100114.84;;;2.76;65.37
76762;BME280;65705;51.032;13.790;2023-03-05T05:59:18;100119.09;;;2.77;64.68
76762;BME280;65705;51.032;13.790;2023-03-05T06:01:44;100121.41;;;2.69;64.43
76762;BME280;65705;51.032;13.790;2023-03-05T06:04:10;100121.72;;;2.64;64.45
76762;BME280;65705;51.032;13.790;2023-03-05T06:06:35;100119.50;;;2.71;64.57
76762;BME280;65705;51.032;13.790;2023-03-05T06:09:01;100114.94;;;2.74;64.28
76762;BME280;65705;51.032;13.790;2023-03-05T06:11:27;100109.09;;;2.83;64.17
76762;BME280;65705;51.032;13.790;2023-03-05T06:13:53;100099.56;;;2.84;64.39
76762;BME280;65705;51.032;13.790;2023-03-05T06:16:22;100097.09;;;2.82;64.56
76762;BME280;65705;51.032;13.790;2023-03-05T06:18:49;100096.38;;;2.80;64.33
76762;BME280;65705;51.032;13.790;2023-03-05T06:21:17;100092.88;;;2.81;63.90
76762;BME280;65705;51.032;13.790;2023-03-05T06:23:44;100104.22;;;2.91;63.77
76762;BME280;65705;51.032;13.790;2023-03-05T06:26:12;100105.03;;;2.92;64.01
76762;BME280;65705;51.032;13.790;2023-03-05T06:28:38;100103.31;;;3.03;63.19
76762;BME280;65705;51.032;13.790;2023-03-05T06:31:05;100114.50;;;3.04;63.46
76762;BME280;65705;51.032;13.790;2023-03-05T06:33:31;100107.81;;;3.12;62.95
76762;BME280;65705;51.032;13.790;2023-03-05T06:35:58;100101.44;;;3.05;62.94
76762;BME280;65705;51.032;13.790;2023-03-05T06:38:24;100102.66;;;3.12;62.96
76762;BME280;65705;51.032;13.790;2023-03-05T06:40:50;100113.06;;;3.23;61.93
76762;BME280;65705;51.032;13.790;2023-03-05T06:43:16;100109.38;;;3.15;62.10
76762;BME280;65705;51.032;13.790;2023-03-05T06:45:42;100113.22;;;3.33;61.52
76762;BME280;65705;51.032;13.790;2023-03-05T06:48:11;100103.13;;;3.17;61.55
76762;BME280;65705;51.032;13.790;2023-03-05T06:50:37;100111.03;;;3.16;61.87
76762;BME280;65705;51.032;13.790;2023-03-05T06:53:03;100113.00;;;3.12;62.13
76762;BME280;65705;51.032;13.790;2023-03-05T06:55:30;100111.56;;;3.08;61.89
76762;BME280;65705;51.032;13.790;2023-03-05T06:57:55;100108.44;;;3.16;62.11
76762;BME280;65705;51.032;13.790;2023-03-05T07:00:21;100125.06;;;3.24;62.04
76762;BME280;65705;51.032;13.790;2023-03-05T07:02:48;100114.50;;;3.28;62.75
76762;BME280;65705;51.032;13.790;2023-03-05T07:05:14;100122.59;;;3.23;63.90
76762;BME280;65705;51.032;13.790;2023-03-05T07:07:40;100127.22;;;3.31;63.72
76762;BME280;65705;51.032;13.790;2023-03-05T07:10:07;100123.78;;;3.19;63.94
76762;BME280;65705;51.032;13.790;2023-03-05T07:12:34;100124.53;;;3.08;64.13
76762;BME280;65705;51.032;13.790;2023-03-05T07:15:00;100118.75;;;3.05;64.87
76762;BME280;65705;51.032;13.790;2023-03-05T07:17:26;100119.94;;;3.01;65.13
76762;BME280;65705;51.032;13.790;2023-03-05T07:19:52;100117.47;;;3.10;65.47
76762;BME280;65705;51.032;13.790;2023-03-05T07:22:17;100114.16;;;3.08;65.34
76762;BME280;65705;51.032;13.790;2023-03-05T07:24:43;100113.00;;;3.12;65.70
76762;BME280;65705;51.032;13.790;2023-03-05T07:27:09;100127.41;;;3.16;65.86
76762;BME280;65705;51.032;13.790;2023-03-05T07:29:35;100110.78;;;3.08;66.59
76762;BME280;65705;51.032;13.790;2023-03-05T07:32:00;100122.72;;;2.98;66.87
76762;BME280;65705;51.032;13.790;2023-03-05T07:34:26;100112.28;;;3.10;66.90
76762;BME280;65705;51.032;13.790;2023-03-05T07:36:52;100115.72;;;3.11;66.88
76762;BME280;65705;51.032;13.790;2023-03-05T07:39:18;100115.78;;;3.22;66.66
76762;BME280;65705;51.032;13.790;2023-03-05T07:41:45;100119.41;;;3.19;66.67
76762;BME280;65705;51.032;13.790;2023-03-05T07:44:12;100111.19;;;3.26;66.58
76762;BME280;65705;51.032;13.790;2023-03-05T07:46:38;100117.75;;;3.18;66.15
76762;BME280;65705;51.032;13.790;2023-03-05T07:49:04;100107.28;;;3.20;66.03
76762;BME280;65705;51.032;13.790;2023-03-05T07:51:29;100118.25;;;3.23;66.18
76762;BME280;65705;51.032;13.790;2023-03-05T07:53:56;100108.09;;;3.20;66.16
76762;BME280;65705;51.032;13.790;2023-03-05T07:56:29;100106.47;;;3.31;65.73
76762;BME280;65705;51.032;13.790;2023-03-05T07:58:58;100108.31;;;3.52;65.31
76762;BME280;65705;51.032;13.790;2023-03-05T08:01:23;100105.59;;;3.54;65.31
76762;BME280;65705;51.032;13.790;2023-03-05T08:03:49;100096.38;;;3.50;65.21
76762;BME280;65705;51.032;13.790;2023-03-05T08:06:15;100101.22;;;3.43;65.58
76762;BME280;65705;51.032;13.790;2023-03-05T08:08:41;100097.34;;;3.49;66.01
76762;BME280;65705;51.032;13.790;2023-03-05T08:11:09;100094.03;;;3.47;66.75
76762;BME280;65705;51.032;13.790;2023-03-05T08:13:36;100096.53;;;3.59;66.45
76762;BME280;65705;51.032;13.790;2023-03-05T08:16:06;100089.09;;;3.66;67.15
76762;BME280;65705;51.032;13.790;2023-03-05T08:18:33;100103.16;;;3.63;67.33
76762;BME280;65705;51.032;13.790;2023-03-05T08:20:59;100085.47;;;3.68;67.12
76762;BME280;65705;51.032;13.790;2023-03-05T08:23:25;100088.03;;;3.57;68.08
76762;BME280;65705;51.032;13.790;2023-03-05T08:25:51;100093.69;;;3.62;68.30
76762;BME280;65705;51.032;13.790;2023-03-05T08:28:17;100084.88;;;3.65;68.69
76762;BME280;65705;51.032;13.790;2023-03-05T08:30:47;100084.19;;;3.85;68.09
76762;BME280;65705;51.032;13.790;2023-03-05T08:33:14;100077.91;;;3.87;67.70
76762;BME280;65705;51.032;13.790;2023-03-05T08:35:42;100089.38;;;3.85;67.15
76762;BME280;65705;51.032;13.790;2023-03-05T08:38:09;100077.34;;;3.73;67.32
76762;BME280;65705;51.032;13.790;2023-03-05T08:40:35;100077.69;;;3.79;67.96
76762;BME280;65705;51.032;13.790;2023-03-05T08:43:00;100074.16;;;3.91;67.66
76762;BME280;65705;51.032;13.790;2023-03-05T08:45:26;100061.31;;;4.12;67.67
76762;BME280;65705;51.032;13.790;2023-03-05T08:47:53;100049.50;;;4.19;67.15
76762;BME280;65705;51.032;13.790;2023-03-05T08:50:20;100054.88;;;4.38;66.16
76762;BME280;65705;51.032;13.790;2023-03-05T08:52:48;100046.00;;;4.52;65.63
76762;BME280;65705;51.032;13.790;2023-03-05T08:55:14;100053.25;;;4.37;65.48
76762;BME280;65705;51.032;13.790;2023-03-05T08:57:41;100047.91;;;4.50;64.94
76762;BME280;65705;51.032;13.790;2023-03-05T09:00:07;100045.63;;;4.56;64.50
76762;BME280;65705;51.032;13.790;2023-03-05T09:02:35;100055.28;;;4.65;65.00
76762;BME280;65705;51.032;13.790;2023-03-05T09:05:02;100061.22;;;4.56;64.91
76762;BME280;65705;51.032;13.790;2023-03-05T09:07:27;100052.72;;;4.54;nan
76762;BME280;65705;51.032;13.790;2023-03-05T09:09:53;100051.38;;;4.28;68.49
76762;BME280;65705;51.032;13.790;2023-03-05T09:12:19;100049.38;;;4.20;69.41
76762;BME280;65705;51.032;13.790;2023-03-05T09:14:45;100046.53;;;4.23;70.16
76762;BME280;65705;51.032;13.790;2023-03-05T09:17:10;100045.59;;;4.24;70.30
76762;BME280;65705;51.032;13.790;2023-03-05T09:19:36;100045.59;;;4.24;70.39
76762;BME280;65705;51.032;13.790;2023-03-05T09:22:02;100044.94;;;4.43;70.32
76762;BME280;65705;51.032;13.790;2023-03-05T09:24:28;100050.16;;;4.32;70.10
76762;BME280;65705;51.032;13.790;2023-03-05T09:26:57;100041.13;;;4.04;71.06
76762;BME280;65705;51.032;13.790;2023-03-05T09:29:23;100043.59;;;3.95;71.64
76762;BME280;65705;51.032;13.790;2023-03-05T09:31:50;100046.31;;;3.93;72.29
76762;BME280;65705;51.032;13.790;2023-03-05T09:34:16;100036.03;;;3.81;72.76
76762;BME280;65705;51.032;13.790;2023-03-05T09:36:41;100038.63;;;3.81;73.22
76762;BME280;65705;51.032;13.790;2023-03-05T09:39:07;100032.03;;;3.77;72.66
76762;BME280;65705;51.032;13.790;2023-03-05T09:44:49;100035.72;;;3.85;72.71
76762;BME280;65705;51.032;13.790;2023-03-05T09:47:29;100030.03;;;4.02;71.69
76762;BME280;65705;51.032;13.790;2023-03-05T09:50:08;100021.50;;;4.11;71.67
76762;BME280;65705;51.032;13.790;2023-03-05T09:52:44;100025.28;;;4.07;70.29
76762;BME280;65705;51.032;13.790;2023-03-05T09:55:44;100025.28;;;4.18;70.35
76762;BME280;65705;51.032;13.790;2023-03-05T09:58:15;100003.91;;;4.26;70.28
76762;BME280;65705;51.032;13.790;2023-03-05T10:00:47;100005.03;;;4.44;69.93
76762;BME280;65705;51.032;13.790;2023-03-05T10:03:43;100004.94;;;4.66;67.97
76762;BME280;65705;51.032;13.790;2023-03-05T10:06:20;99996.03;;;4.80;67.77
76762;BME280;65705;51.032;13.790;2023-03-05T10:08:57;100003.41;;;4.75;67.08
76762;BME280;65705;51.032;13.790;2023-03-05T10:11:33;99996.31;;;4.97;67.19
76762;BME280;65705;51.032;13.790;2023-03-05T10:14:02;99985.53;;;5.02;66.27
76762;BME280;65705;51.032;13.790;2023-03-05T10:16:48;99990.66;;;5.13;66.50
76762;BME280;65705;51.032;13.790;2023-03-05T10:25:12;99973.09;;;4.85;65.39
76762;BME280;65705;51.032;13.790;2023-03-05T10:27:46;99980.41;;;4.59;65.11
76762;BME280;65705;51.032;13.790;2023-03-05T10:30:34;99985.94;;;4.66;64.82
76762;BME280;65705;51.032;13.790;2023-03-05T10:39:33;99955.25;;;4.60;64.54
76762;BME280;65705;51.032;13.790;2023-03-05T10:41:39;99960.72;;;4.57;62.79
76762;BME280;65705;51.032;13.790;2023-03-05T10:44:13;99955.13;;;4.61;63.40
76762;BME280;65705;51.032;13.790;2023-03-05T10:46:41;99959.28;;;4.53;62.74
76762;BME280;65705;51.032;13.790;2023-03-05T10:49:19;99966.72;;;4.57;62.67
76762;BME280;65705;51.032;13.790;2023-03-05T10:51:55;99940.22;;;4.63;62.27
76762;BME280;65705;51.032;13.790;2023-03-05T10:59:29;99921.16;;;4.74;60.93
76762;BME280;65705;51.032;13.790;2023-03-05T11:02:03;99928.31;;;4.81;61.12
76762;BME280;65705;51.032;13.790;2023-03-05T11:04:35;99941.06;;;4.84;61.13
76762;BME280;65705;51.032;13.790;2023-03-05T11:09:40;99927.28;;;4.93;60.57
76762;BME280;65705;51.032;13.790;2023-03-05T11:12:18;99940.31;;;4.93;60.98
76762;BME280;65705;51.032;13.790;2023-03-05T11:15:24;99933.00;;;5.08;60.91
76762;BME280;65705;51.032;13.790;2023-03-05T11:18:26;99960.94;;;4.85;60.96
76762;BME280;65705;51.032;13.790;2023-03-05T11:21:08;99942.84;;;4.84;60.75
76762;BME280;65705;51.032;13.790;2023-03-05T11:23:34;99938.31;;;4.86;61.25
76762;BME280;65705;51.032;13.790;2023-03-05T11:28:56;99926.22;;;4.75;62.40
76762;BME280;65705;51.032;13.790;2023-03-05T11:31:26;99932.19;;;4.87;63.09
76762;BME280;65705;51.032;13.790;2023-03-05T11:36:38;99920.06;;;4.97;63.21
76762;BME280;65705;51.032;13.790;2023-03-05T11:39:08;99921.34;;;4.82;63.14
76762;BME280;65705;51.032;13.790;2023-03-05T11:44:12;99909.78;;;4.95;63.23
76762;BME280;65705;51.032;13.790;2023-03-05T11:47:47;99902.63;;;5.08;62.82
76762;BME280;65705;51.032;13.790;2023-03-05T11:49:49;99901.41;;;5.12;63.03
76762;BME280;65705;51.032;13.790;2023-03-05T11:52:23;99902.31;;;5.02;63.82
76762;BME280;65705;51.032;13.790;2023-03-05T11:57:35;99910.56;;;4.86;64.35
76762;BME280;65705;51.032;13.790;2023-03-05T12:00:06;99896.63;;;4.67;64.98
76762;BME280;65705;51.032;13.790;2023-03-05T12:26:15;99846.19;;;4.99;65.30
76762;BME280;65705;51.032;13.790;2023-03-05T12:33:50;99854.84;;;5.09;64.70
76762;BME280;65705;51.032;13.790;2023-03-05T12:38:51;99833.19;;;4.99;64.76
76762;BME280;65705;51.032;13.790;2023-03-05T12:46:42;99817.06;;;5.05;64.63
76762;BME280;65705;51.032;13.790;2023-03-05T12:51:50;99831.00;;;5.04;63.83
76762;BME280;65705;51.032;13.790;2023-03-05T12:57:03;99827.50;;;4.85;63.76
76762;BME280;65705;51.032;13.790;2023-03-05T13:02:25;99824.34;;;4.61;64.49
76762;BME280;65705;51.032;13.790;2023-03-05T13:05:03;99824.25;;;4.62;65.20
76762;BME280;65705;51.032;13.790;2023-03-05T13:07:29;99825.88;;;4.84;64.72
76762;BME280;65705;51.032;13.790;2023-03-05T13:09:57;99811.13;;;4.94;64.51
76762;BME280;65705;51.032;13.790;2023-03-05T13:12:26;99811.16;;;5.03;64.68
76762;BME280;65705;51.032;13.790;2023-03-05T13:14:58;99810.25;;;5.23;64.46
76762;BME280;65705;51.032;13.790;2023-03-05T13:17:35;99807.59;;;5.44;64.04
76762;BME280;65705;51.032;13.790;2023-03-05T13:25:39;99794.03;;;5.41;64.57
76762;BME280;65705;51.032;13.790;2023-03-05T13:28:10;99788.66;;;5.32;64.81
76762;BME280;65705;51.032;13.790;2023-03-05T13:30:37;99792.50;;;5.28;64.63
76762;BME280;65705;51.032;13.790;2023-03-05T13:33:03;99790.69;;;5.19;64.62
76762;BME280;65705;51.032;13.790;2023-03-05T13:35:33;99795.03;;;5.09;65.04
76762;BME280;65705;51.032;13.790;2023-03-05T13:37:59;99795.72;;;5.11;65.36
76762;BME280;65705;51.032;13.790;2023-03-05T13:40:29;99787.78;;;5.13;64.81
76762;BME280;65705;51.032;13.790;2023-03-05T13:43:08;99782.56;;;5.03;64.68
76762;BME280;65705;51.032;13.790;2023-03-05T13:45:34;99785.44;;;5.10;64.82
76762;BME280;65705;51.032;13.790;2023-03-05T13:48:02;99778.72;;;5.07;64.66
76762;BME280;65705;51.032;13.790;2023-03-05T13:53:12;99773.09;;;5.02;64.79
76762;BME280;65705;51.032;13.790;2023-03-05T13:55:38;99760.78;;;5.04;64.75
76762;BME280;65705;51.032;13.790;2023-03-05T13:58:04;99759.16;;;5.03;64.52
76762;BME280;65705;51.032;13.790;2023-03-05T14:02:59;99746.69;;;4.97;64.45
76762;BME280;65705;51.032;13.790;2023-03-05T14:05:26;99752.56;;;4.99;64.12
76762;BME280;65705;51.032;13.790;2023-03-05T14:07:53;99748.91;;;5.11;64.09
76762;BME280;65705;51.032;13.790;2023-03-05T14:10:36;99736.44;;;5.05;64.37
76762;BME280;65705;51.032;13.790;2023-03-05T14:13:05;99740.25;;;5.01;64.13
76762;BME280;65705;51.032;13.790;2023-03-05T14:15:36;99737.53;;;5.03;64.52
76762;BME280;65705;51.032;13.790;2023-03-05T14:20:57;99734.09;;;5.02;63.91
76762;BME280;65705;51.032;13.790;2023-03-05T14:23:44;99734.88;;;4.93;64.33
76762;BME280;65705;51.032;13.790;2023-03-05T14:28:56;99759.63;;;4.88;66.01
76762;BME280;65705;51.032;13.790;2023-03-05T14:31:23;99758.13;;;4.85;67.13
76762;BME280;65705;51.032;13.790;2023-03-05T14:33:50;99748.13;;;4.81;67.81
76762;BME280;65705;51.032;13.790;2023-03-05T14:36:22;99749.03;;;4.70;65.18